createdAt,value
2022-08-27T00:02:22.414Z,8.70
2022-08-27T00:04:51.113Z,10.00
2022-08-27T00:07:19.493Z,7.40
2022-08-27T00:09:48.071Z,9.90
2022-08-27T00:12:16.552Z,7.80
2022-08-27T00:14:45.452Z,9.50
2022-08-27T00:17:14.159Z,8.70
2022-08-27T00:19:42.978Z,8.10
2022-08-27T00:22:12.936Z,7.80
2022-08-27T00:24:45.213Z,7.40
2022-08-27T00:27:18.192Z,8.70
2022-08-27T00:29:49.952Z,12.30
2022-08-27T00:32:19.532Z,7.30
2022-08-27T00:34:47.928Z,8.90
2022-08-27T00:37:16.616Z,9.10
2022-08-27T00:39:45.403Z,7.40
2022-08-27T00:42:14.089Z,6.90
2022-08-27T00:44:42.801Z,7.80
2022-08-27T00:47:18.105Z,9.80
2022-08-27T00:50:02.537Z,8.10
2022-08-27T00:52:45.268Z,10.60
2022-08-27T00:55:36.019Z,9.60
2022-08-27T00:58:27.303Z,10.00
2022-08-27T01:00:57.577Z,9.70
2022-08-27T01:03:27.258Z,11.50
2022-08-27T01:06:01.769Z,7.10
2022-08-27T01:08:36.556Z,9.10
2022-08-27T01:11:07.441Z,8.00
2022-08-27T01:13:54.463Z,9.20
2022-08-27T01:16:33.812Z,8.60
2022-08-27T01:19:07.410Z,15.30
2022-08-27T01:21:56.148Z,11.70
2022-08-27T01:24:42.163Z,9.10
2022-08-27T01:27:18.768Z,6.30
2022-08-27T01:29:47.208Z,7.60
2022-08-27T01:32:19.812Z,7.40
2022-08-27T01:34:49.316Z,7.10
2022-08-27T01:37:23.621Z,7.30
2022-08-27T01:39:57.493Z,9.10
2022-08-27T01:42:33.650Z,6.50
2022-08-27T01:45:14.211Z,10.00
2022-08-27T01:47:43.277Z,8.20
2022-08-27T01:50:20.463Z,7.30
2022-08-27T01:52:49.707Z,6.60
2022-08-27T01:55:23.297Z,8.40
2022-08-27T01:57:54.565Z,8.50
2022-08-27T02:00:28.669Z,7.10
2022-08-27T02:02:59.393Z,8.20
2022-08-27T02:05:30.257Z,9.30
2022-08-27T02:07:59.157Z,7.20
2022-08-27T02:10:37.136Z,9.00
2022-08-27T02:13:07.386Z,7.60
2022-08-27T02:15:37.601Z,8.60
2022-08-27T02:18:08.900Z,7.00
2022-08-27T02:23:29.928Z,7.60
2022-08-27T02:25:58.375Z,9.10
2022-08-27T02:28:26.835Z,7.60
2022-08-27T02:30:55.442Z,7.90
2022-08-27T02:33:23.904Z,8.00
2022-08-27T02:35:52.830Z,9.90
2022-08-27T02:38:21.338Z,7.50
2022-08-27T02:40:49.973Z,6.20
2022-08-27T02:43:24.922Z,5.60
2022-08-27T02:45:54.076Z,7.80
2022-08-27T02:48:23.392Z,8.90
2022-08-27T02:50:52.345Z,9.10
2022-08-27T02:53:21.685Z,7.40
2022-08-27T02:55:52.457Z,9.60
2022-08-27T02:58:20.891Z,8.30
2022-08-27T03:00:49.466Z,7.20
2022-08-27T03:03:18.641Z,7.40
2022-08-27T03:05:48.492Z,8.50
2022-08-27T03:08:16.893Z,7.90
2022-08-27T03:10:46.071Z,8.60
2022-08-27T03:13:14.556Z,8.50
2022-08-27T03:15:42.998Z,8.20
2022-08-27T03:18:21.799Z,9.10
2022-08-27T03:20:56.525Z,7.30
2022-08-27T03:23:29.123Z,6.90
2022-08-27T03:26:01.123Z,9.10
2022-08-27T03:29:45.961Z,9.20
2022-08-27T03:32:14.441Z,8.90
2022-08-27T03:34:42.864Z,8.90
2022-08-27T03:37:11.305Z,12.90
2022-08-27T03:39:39.762Z,10.50
2022-08-27T03:42:08.148Z,9.80
2022-08-27T03:44:36.644Z,10.90
2022-08-27T03:49:53.014Z,9.40
2022-08-27T03:52:21.476Z,9.30
2022-08-27T03:54:50.100Z,8.70
2022-08-27T03:57:18.593Z,10.00
2022-08-27T03:59:46.995Z,11.40
2022-08-27T04:02:16.481Z,12.90
2022-08-27T04:04:45.029Z,14.20
2022-08-27T04:07:13.496Z,15.10
2022-08-27T04:09:42.459Z,19.20
2022-08-27T04:12:11.840Z,22.10
2022-08-27T04:14:40.391Z,18.10
2022-08-27T04:17:30.113Z,18.50
2022-08-27T04:20:36.305Z,19.80
2022-08-27T04:23:06.194Z,25.40
2022-08-27T04:25:34.603Z,18.00
2022-08-27T04:28:03.420Z,18.00
2022-08-27T04:30:32.945Z,19.80
2022-08-27T04:33:01.329Z,17.50
2022-08-27T04:35:29.715Z,13.70
2022-08-27T04:37:58.689Z,15.10
2022-08-27T04:40:47.102Z,21.80
2022-08-27T04:43:17.624Z,18.90
2022-08-27T04:45:48.639Z,18.20
2022-08-27T04:48:19.396Z,22.90
2022-08-27T04:50:48.386Z,42.70
2022-08-27T04:53:18.181Z,35.70
2022-08-27T04:55:53.684Z,21.90
2022-08-27T04:58:24.634Z,17.90
2022-08-27T05:00:59.367Z,21.40
2022-08-27T05:03:28.889Z,18.00
2022-08-27T05:06:05.567Z,14.00
2022-08-27T05:08:34.830Z,12.70
2022-08-27T05:11:03.514Z,16.60
2022-08-27T05:13:31.959Z,19.70
2022-08-27T05:16:04.247Z,19.70
2022-08-27T05:18:37.974Z,15.80
2022-08-27T05:21:33.949Z,17.00
2022-08-27T05:24:06.580Z,14.20
2022-08-27T05:26:36.411Z,15.40
2022-08-27T05:29:06.698Z,15.80
2022-08-27T05:31:35.429Z,16.80
2022-08-27T05:34:10.110Z,12.20
2022-08-27T05:39:18.071Z,12.70
2022-08-27T05:41:46.689Z,10.40
2022-08-27T05:47:05.628Z,13.10
2022-08-27T05:49:34.122Z,12.20
2022-08-27T05:52:02.855Z,14.60
2022-08-27T05:54:31.240Z,11.20
2022-08-27T05:56:59.596Z,10.10
2022-08-27T05:59:46.977Z,11.00
2022-08-27T06:02:15.498Z,11.70
2022-08-27T06:04:43.895Z,13.10
2022-08-27T06:07:15.747Z,12.60
2022-08-27T06:09:44.173Z,14.80
2022-08-27T06:12:12.618Z,77.10
2022-08-27T06:14:41.057Z,13.60
2022-08-27T06:17:09.541Z,15.80
2022-08-27T06:19:38.010Z,11.60
2022-08-27T06:22:09.881Z,11.40
2022-08-27T06:24:42.258Z,16.30
2022-08-27T06:27:14.868Z,12.10
2022-08-27T06:29:44.868Z,12.60
2022-08-27T06:32:15.143Z,11.20
2022-08-27T06:34:43.667Z,13.60
2022-08-27T06:37:12.134Z,10.80
2022-08-27T06:39:40.818Z,11.50
2022-08-27T06:42:12.553Z,13.30
2022-08-27T06:44:41.728Z,17.50
2022-08-27T06:47:10.840Z,14.80
2022-08-27T06:49:43.410Z,21.40
2022-08-27T06:52:15.637Z,15.90
2022-08-27T06:54:45.157Z,16.10
2022-08-27T06:57:13.665Z,10.80
2022-08-27T06:59:42.333Z,11.10
2022-08-27T07:02:11.553Z,11.70
2022-08-27T07:04:40.075Z,12.50
2022-08-27T07:07:13.820Z,16.50
2022-08-27T07:09:42.314Z,12.40
2022-08-27T07:12:10.831Z,10.40
2022-08-27T07:14:39.377Z,11.00
2022-08-27T07:17:11.231Z,13.20
2022-08-27T07:19:45.443Z,11.50
2022-08-27T07:22:13.987Z,12.40
2022-08-27T07:24:42.829Z,11.70
2022-08-27T07:27:11.387Z,14.70
2022-08-27T07:29:39.970Z,16.00
2022-08-27T07:32:08.447Z,15.60
2022-08-27T07:34:37.523Z,13.60
2022-08-27T07:37:06.239Z,14.90
2022-08-27T07:39:34.660Z,11.70
2022-08-27T07:42:21.839Z,12.00
2022-08-27T07:44:50.444Z,11.70
2022-08-27T07:47:18.873Z,12.10
2022-08-27T07:49:48.601Z,9.80
2022-08-27T07:52:17.652Z,10.50
2022-08-27T07:54:46.129Z,10.30
2022-08-27T07:57:14.675Z,9.30
2022-08-27T07:59:43.580Z,9.80
2022-08-27T08:02:12.951Z,9.10
2022-08-27T08:04:41.528Z,8.90
2022-08-27T08:07:10.049Z,13.40
2022-08-27T08:09:39.026Z,10.60
2022-08-27T08:12:07.705Z,11.30
2022-08-27T08:14:37.031Z,13.10
2022-08-27T08:17:10.117Z,9.30
2022-08-27T08:19:40.533Z,13.00
2022-08-27T08:22:09.331Z,14.80
2022-08-27T08:24:37.832Z,10.60
2022-08-27T08:27:07.619Z,9.30
2022-08-27T08:29:37.794Z,11.40
2022-08-27T08:32:07.935Z,9.20
2022-08-27T08:34:37.274Z,10.50
2022-08-27T08:37:07.287Z,9.40
2022-08-27T08:39:37.934Z,11.00
2022-08-27T08:42:19.434Z,10.50
2022-08-27T08:44:53.840Z,9.90
2022-08-27T08:47:46.490Z,10.50
2022-08-27T08:50:54.114Z,8.40
2022-08-27T08:54:00.028Z,8.80
2022-08-27T08:56:47.977Z,8.80
2022-08-27T08:59:38.710Z,8.70
2022-08-27T09:02:13.533Z,8.00
2022-08-27T09:04:43.758Z,8.20
2022-08-27T09:07:37.526Z,7.40
2022-08-27T09:10:47.483Z,7.10
2022-08-27T09:13:29.793Z,7.80
2022-08-27T09:16:02.270Z,7.20
2022-08-27T09:18:35.214Z,7.00
2022-08-27T09:21:27.452Z,7.70
2022-08-27T09:25:06.356Z,7.70
2022-08-27T09:27:41.666Z,11.20
2022-08-27T09:30:24.060Z,8.80
2022-08-27T09:32:58.364Z,10.70
2022-08-27T09:35:35.119Z,11.30
2022-08-27T09:38:04.590Z,12.30
2022-08-27T09:40:43.011Z,8.40
2022-08-27T09:43:33.581Z,8.50
2022-08-27T09:46:24.657Z,8.70
2022-08-27T09:49:23.758Z,8.70
2022-08-27T09:51:55.272Z,9.20
2022-08-27T09:54:47.611Z,8.90
2022-08-27T09:57:49.407Z,9.10
2022-08-27T10:00:42.626Z,9.30
2022-08-27T10:03:11.976Z,9.20
2022-08-27T10:05:59.476Z,8.30
2022-08-27T10:08:52.631Z,7.90
2022-08-27T10:11:32.832Z,7.00
2022-08-27T10:14:16.437Z,7.40
2022-08-27T10:17:13.067Z,8.50
2022-08-27T10:20:03.675Z,6.90
2022-08-27T10:22:56.411Z,6.30
2022-08-27T10:25:55.967Z,6.20
2022-08-27T10:29:15.383Z,6.40
2022-08-27T10:32:41.707Z,6.50
2022-08-27T10:35:23.708Z,7.60
2022-08-27T10:38:24.047Z,6.20
2022-08-27T10:41:18.166Z,6.10
2022-08-27T10:44:23.717Z,7.50
2022-08-27T10:47:59.873Z,6.10
2022-08-27T10:51:08.509Z,5.90
2022-08-27T10:54:09.345Z,5.20
2022-08-27T10:57:28.638Z,4.90
2022-08-27T11:00:20.449Z,4.60
2022-08-27T11:03:04.049Z,5.10
2022-08-27T11:05:56.832Z,5.60
2022-08-27T11:08:44.731Z,4.90
2022-08-27T11:12:10.020Z,4.80
2022-08-27T11:14:43.500Z,6.00
2022-08-27T11:17:18.813Z,5.30
2022-08-27T11:20:20.029Z,5.10
2022-08-27T11:23:47.313Z,4.60
2022-08-27T11:27:21.816Z,4.70
2022-08-27T11:30:05.717Z,4.50
2022-08-27T11:34:16.304Z,4.30
2022-08-27T11:38:09.278Z,3.90
2022-08-27T11:41:06.703Z,3.40
2022-08-27T11:44:39.797Z,5.40
2022-08-27T11:48:18.929Z,3.10
2022-08-27T11:51:32.216Z,4.50
2022-08-27T11:59:43.067Z,4.60
2022-08-27T12:03:00.102Z,4.00
2022-08-27T12:06:21.298Z,4.00
2022-08-27T12:10:19.877Z,5.00
2022-08-27T12:14:07.968Z,6.60
2022-08-27T12:17:43.760Z,4.10
2022-08-27T12:21:35.571Z,5.20
2022-08-27T12:25:26.652Z,3.70
2022-08-27T12:28:57.639Z,3.50
2022-08-27T12:32:28.869Z,5.90
2022-08-27T12:35:52.115Z,4.00
2022-08-27T12:38:42.897Z,4.60
2022-08-27T12:41:44.565Z,3.20
2022-08-27T12:44:24.608Z,8.30
2022-08-27T12:47:02.009Z,4.20
2022-08-27T12:50:22.301Z,3.30
2022-08-27T12:53:07.250Z,3.80
2022-08-27T12:56:09.179Z,3.70
2022-08-27T12:59:11.773Z,3.60
2022-08-27T13:02:05.490Z,3.80
2022-08-27T13:04:39.628Z,3.30
2022-08-27T13:07:08.193Z,9.70
2022-08-27T13:09:39.520Z,4.60
2022-08-27T13:12:17.883Z,3.60
2022-08-27T13:14:49.617Z,3.50
2022-08-27T13:17:27.347Z,4.90
2022-08-27T13:20:01.407Z,5.60
2022-08-27T13:22:38.979Z,7.80
2022-08-27T13:25:34.033Z,3.20
2022-08-27T13:28:13.656Z,3.50
2022-08-27T13:30:50.420Z,4.50
2022-08-27T13:34:17.855Z,3.60
2022-08-27T13:41:48.850Z,3.80
2022-08-27T13:44:48.192Z,3.50
2022-08-27T13:47:31.076Z,4.50
2022-08-27T13:50:33.672Z,3.30
2022-08-27T13:53:52.435Z,4.20
2022-08-27T13:56:37.084Z,2.90
2022-08-27T13:59:35.581Z,4.70
2022-08-27T14:02:36.235Z,3.10
2022-08-27T14:05:52.872Z,3.20
2022-08-27T14:08:47.293Z,3.40
2022-08-27T14:11:25.563Z,8.00
2022-08-27T14:14:06.909Z,3.20
2022-08-27T14:17:08.117Z,5.20
2022-08-27T14:20:09.445Z,4.10
2022-08-27T14:22:49.524Z,5.90
2022-08-27T14:25:30.753Z,4.70
2022-08-27T14:28:31.434Z,3.50
2022-08-27T14:31:10.428Z,4.00
2022-08-27T14:33:42.795Z,3.80
2022-08-27T14:36:51.745Z,3.30
2022-08-27T14:39:42.276Z,2.80
2022-08-27T14:42:17.669Z,4.10
2022-08-27T14:45:13.936Z,3.70
2022-08-27T14:47:48.508Z,4.30
2022-08-27T14:50:49.117Z,4.90
2022-08-27T14:53:42.934Z,6.40
2022-08-27T14:56:15.744Z,4.40
2022-08-27T14:58:57.032Z,4.70
2022-08-27T15:01:38.246Z,4.40
2022-08-27T15:04:24.400Z,5.10
2022-08-27T15:07:20.041Z,6.00
2022-08-27T15:10:03.319Z,8.70
2022-08-27T15:12:37.259Z,7.00
2022-08-27T15:15:25.566Z,4.20
2022-08-27T15:18:03.432Z,4.90
2022-08-27T15:20:38.530Z,4.90
2022-08-27T15:23:14.924Z,6.60
2022-08-27T15:26:08.614Z,5.40
2022-08-27T15:28:43.201Z,6.20
2022-08-27T15:31:17.939Z,4.90
2022-08-27T15:33:59.195Z,5.10
2022-08-27T15:36:41.412Z,4.80
2022-08-27T15:39:27.848Z,5.20
2022-08-27T15:42:17.800Z,4.80
2022-08-27T15:44:54.942Z,4.30
2022-08-27T15:47:30.548Z,4.00
2022-08-27T15:50:36.895Z,3.50
2022-08-27T15:53:33.170Z,4.30
2022-08-27T15:56:09.098Z,4.30
2022-08-27T15:59:29.129Z,5.80
2022-08-27T16:02:05.746Z,4.50
2022-08-27T16:05:24.332Z,4.40
2022-08-27T16:08:26.544Z,3.60
2022-08-27T16:11:09.037Z,5.80
2022-08-27T16:13:45.271Z,3.70
2022-08-27T16:16:24.994Z,4.20
2022-08-27T16:19:04.079Z,5.50
2022-08-27T16:21:39.566Z,5.00
2022-08-27T16:24:15.399Z,5.20
2022-08-27T16:26:51.700Z,3.80
2022-08-27T16:48:51.521Z,3.70
2022-08-27T16:53:23.407Z,2.70
2022-08-27T16:56:14.830Z,2.80
2022-08-27T16:58:57.719Z,3.70
2022-08-27T17:01:31.969Z,3.60
2022-08-27T17:04:17.307Z,3.80
2022-08-27T17:06:56.666Z,3.10
2022-08-27T17:09:35.926Z,2.70
2022-08-27T17:12:36.789Z,2.80
2022-08-27T17:21:41.900Z,3.60
2022-08-27T17:27:14.575Z,5.20
2022-08-27T17:29:56.114Z,11.00
2022-08-27T17:32:38.452Z,4.90
2022-08-27T17:35:19.855Z,4.30
2022-08-27T17:37:58.055Z,4.00
2022-08-27T17:40:35.055Z,2.90
2022-08-27T17:47:35.170Z,4.30
2022-08-27T17:50:14.563Z,4.70
2022-08-27T17:53:08.197Z,3.80
2022-08-27T17:55:45.224Z,3.90
2022-08-27T17:58:46.502Z,5.00
2022-08-27T18:01:28.495Z,4.90
2022-08-27T18:04:25.214Z,5.80
2022-08-27T18:07:23.557Z,6.90
2022-08-27T18:10:00.704Z,6.20
2022-08-27T18:12:35.809Z,5.40
2022-08-27T18:15:40.192Z,13.20
2022-08-27T18:18:18.194Z,7.10
2022-08-27T18:21:25.577Z,5.20
2022-08-27T18:24:01.710Z,5.70
2022-08-27T18:26:52.227Z,5.80
2022-08-27T18:29:37.621Z,8.90
2022-08-27T18:32:38.995Z,7.70
2022-08-27T18:35:56.791Z,6.50
2022-08-27T18:38:57.192Z,6.70
2022-08-27T18:41:45.254Z,5.20
2022-08-27T18:44:30.248Z,6.40
2022-08-27T18:50:17.850Z,8.10
2022-08-27T18:52:53.917Z,9.80
2022-08-27T18:55:48.391Z,8.80
2022-08-27T18:58:21.960Z,8.30
2022-08-27T19:01:38.378Z,9.00
2022-08-27T19:04:09.365Z,8.50
2022-08-27T19:06:48.781Z,7.70
2022-08-27T19:09:50.766Z,7.00
2022-08-27T19:12:29.880Z,8.70
2022-08-27T19:15:11.992Z,8.50
2022-08-27T19:18:26.988Z,7.90
2022-08-27T19:21:01.208Z,7.70
2022-08-27T19:23:38.864Z,10.20
2022-08-27T19:26:31.814Z,9.70
2022-08-27T19:29:03.663Z,9.60
2022-08-27T19:31:38.811Z,9.20
2022-08-27T19:34:17.619Z,10.50
2022-08-27T19:37:03.456Z,8.40
2022-08-27T19:39:38.286Z,7.90
2022-08-27T19:45:11.473Z,7.40
2022-08-27T19:47:49.723Z,5.60
2022-08-27T19:51:01.753Z,8.50
2022-08-27T19:53:59.687Z,6.30
2022-08-27T19:56:37.249Z,6.40
2022-08-27T19:59:20.590Z,7.50
2022-08-27T20:02:15.436Z,5.50
2022-08-27T20:05:21.104Z,4.70
2022-08-27T20:07:56.666Z,4.80
2022-08-27T20:10:50.187Z,5.10
2022-08-27T20:13:20.866Z,5.20
2022-08-27T20:16:02.199Z,6.80
2022-08-27T20:18:36.491Z,7.30
2022-08-27T20:21:14.096Z,6.20
2022-08-27T20:24:09.159Z,4.30
2022-08-27T20:26:46.053Z,4.80
2022-08-27T20:29:32.913Z,5.60
2022-08-27T20:32:07.084Z,5.70
2022-08-27T20:34:44.748Z,4.90
2022-08-27T20:37:17.815Z,5.70
2022-08-27T20:39:46.515Z,8.70
2022-08-27T20:42:14.973Z,5.70
2022-08-27T20:44:43.349Z,7.50
2022-08-27T20:47:11.901Z,7.10
2022-08-27T20:49:44.651Z,9.10
2022-08-27T20:52:15.020Z,10.00
2022-08-27T20:54:43.373Z,10.00
2022-08-27T20:57:12.359Z,8.70
2022-08-27T20:59:59.651Z,8.70
2022-08-27T21:02:30.267Z,10.00
2022-08-27T21:05:09.366Z,12.50
2022-08-27T21:07:37.888Z,12.00
2022-08-27T21:10:07.849Z,12.90
2022-08-27T21:12:37.217Z,12.20
2022-08-27T21:15:08.522Z,12.00
2022-08-27T21:17:37.360Z,12.50
2022-08-27T21:20:12.981Z,13.10
2022-08-27T21:22:44.083Z,14.10
2022-08-27T21:25:14.077Z,14.20
2022-08-27T21:27:43.079Z,13.80
2022-08-27T21:30:13.033Z,13.10
2022-08-27T21:32:42.211Z,13.80
2022-08-27T21:35:14.834Z,14.10
2022-08-27T21:37:43.880Z,15.20
2022-08-27T21:40:15.903Z,17.00
2022-08-27T21:42:53.476Z,16.80
2022-08-27T21:45:34.521Z,15.40
2022-08-27T21:48:19.158Z,14.00
2022-08-27T21:50:53.972Z,15.50
2022-08-27T21:53:23.202Z,15.40
2022-08-27T21:55:55.545Z,15.10
2022-08-27T21:58:26.775Z,15.60
2022-08-27T22:00:55.867Z,16.70
2022-08-27T22:03:28.699Z,18.30
2022-08-27T22:05:59.814Z,19.70
2022-08-27T22:08:28.157Z,19.80
2022-08-27T22:10:58.817Z,22.50
2022-08-27T22:13:27.497Z,23.90
2022-08-27T22:15:56.318Z,25.80
2022-08-27T22:18:25.067Z,25.60
2022-08-27T22:20:53.725Z,27.90
2022-08-27T22:23:24.851Z,27.40
2022-08-27T22:25:53.302Z,26.70
2022-08-27T22:28:22.082Z,27.50
2022-08-27T22:30:50.518Z,30.00
2022-08-27T22:33:19.136Z,33.10
2022-08-27T22:35:48.456Z,31.90
2022-08-27T22:38:17.815Z,31.40
2022-08-27T22:40:46.511Z,29.70
2022-08-27T22:43:16.392Z,33.00
2022-08-27T22:46:06.200Z,33.10
2022-08-27T22:48:40.706Z,31.60
2022-08-27T22:51:33.969Z,35.40
2022-08-27T22:54:02.385Z,33.70
2022-08-27T22:56:31.776Z,32.00
2022-08-27T22:59:07.364Z,34.40
2022-08-27T23:01:44.806Z,35.60
2022-08-27T23:04:18.925Z,36.10
2022-08-27T23:06:52.856Z,36.90
2022-08-27T23:09:28.042Z,37.60
2022-08-27T23:12:24.262Z,35.30
2022-08-27T23:15:01.964Z,37.60
2022-08-27T23:17:36.431Z,37.90
2022-08-27T23:20:11.821Z,38.50
2022-08-27T23:23:44.500Z,37.70
2022-08-27T23:26:40.063Z,40.90
2022-08-27T23:29:52.711Z,36.70
2022-08-27T23:32:50.202Z,41.80
2022-08-27T23:35:34.734Z,40.70
2022-08-27T23:38:07.631Z,37.10
2022-08-27T23:41:16.355Z,37.90
2022-08-27T23:43:54.321Z,42.70
2022-08-27T23:46:48.564Z,38.60
2022-08-27T23:49:27.845Z,39.00
2022-08-27T23:52:01.862Z,39.80
2022-08-27T23:54:35.701Z,39.50
2022-08-27T23:57:04.815Z,37.10
2022-08-27T23:59:33.296Z,37.90
